sensor_id;sensor_type;location;lat;lon;timestamp;temperature;humidity
1359;DHT22;673;48.098;14.422;2022-09-02T00:01:29;14.60;99.90
1359;DHT22;673;48.098;14.422;2022-09-02T00:04:00;14.60;99.90
1359;DHT22;673;48.098;14.422;2022-09-02T00:06:28;14.50;99.90
1359;DHT22;673;48.098;14.422;2022-09-02T00:08:56;14.50;99.90
1359;DHT22;673;48.098;14.422;2022-09-02T00:11:25;14.50;99.90
1359;DHT22;673;48.098;14.422;2022-09-02T00:13:54;14.50;99.90
1359;DHT22;673;48.098;14.422;2022-09-02T00:16:22;14.40;99.90
1359;DHT22;673;48.098;14.422;2022-09-02T00:18:51;14.40;99.90
1359;DHT22;673;48.098;14.422;2022-09-02T00:21:19;14.30;99.90
1359;DHT22;673;48.098;14.422;2022-09-02T00:23:47;14.30;99.90
1359;DHT22;673;48.098;14.422;2022-09-02T00:26:14;14.20;99.90
1359;DHT22;673;48.098;14.422;2022-09-02T00:28:42;14.10;99.90
1359;DHT22;673;48.098;14.422;2022-09-02T00:31:09;14.00;99.90
1359;DHT22;673;48.098;14.422;2022-09-02T00:33:37;13.90;99.90
1359;DHT22;673;48.098;14.422;2022-09-02T00:36:06;13.90;99.90
1359;DHT22;673;48.098;14.422;2022-09-02T00:38:34;13.90;99.90
1359;DHT22;673;48.098;14.422;2022-09-02T00:41:06;13.70;99.90
1359;DHT22;673;48.098;14.422;2022-09-02T00:43:40;13.70;99.90
1359;DHT22;673;48.098;14.422;2022-09-02T00:46:09;13.70;99.90
1359;DHT22;673;48.098;14.422;2022-09-02T00:48:39;13.60;99.90
1359;DHT22;673;48.098;14.422;2022-09-02T00:51:10;13.60;99.90
1359;DHT22;673;48.098;14.422;2022-09-02T00:53:38;13.50;99.90
1359;DHT22;673;48.098;14.422;2022-09-02T00:56:09;13.50;99.90
1359;DHT22;673;48.098;14.422;2022-09-02T00:58:38;13.30;99.90
1359;DHT22;673;48.098;14.422;2022-09-02T01:01:05;13.30;99.90
1359;DHT22;673;48.098;14.422;2022-09-02T01:03:34;13.20;99.90
1359;DHT22;673;48.098;14.422;2022-09-02T01:06:01;13.20;99.90
1359;DHT22;673;48.098;14.422;2022-09-02T01:08:32;13.20;99.90
1359;DHT22;673;48.098;14.422;2022-09-02T01:11:01;13.10;99.90
1359;DHT22;673;48.098;14.422;2022-09-02T01:13:35;13.10;99.90
1359;DHT22;673;48.098;14.422;2022-09-02T01:16:09;13.00;99.90
1359;DHT22;673;48.098;14.422;2022-09-02T01:18:37;12.90;99.90
1359;DHT22;673;48.098;14.422;2022-09-02T01:21:04;12.70;99.90
1359;DHT22;673;48.098;14.422;2022-09-02T01:23:33;12.70;99.90
1359;DHT22;673;48.098;14.422;2022-09-02T01:26:01;12.80;99.90
1359;DHT22;673;48.098;14.422;2022-09-02T01:28:29;12.70;99.90
1359;DHT22;673;48.098;14.422;2022-09-02T01:30:58;12.70;99.90
1359;DHT22;673;48.098;14.422;2022-09-02T01:33:25;12.70;99.90
1359;DHT22;673;48.098;14.422;2022-09-02T01:35:52;12.70;99.90
1359;DHT22;673;48.098;14.422;2022-09-02T01:38:22;12.60;99.90
1359;DHT22;673;48.098;14.422;2022-09-02T01:40:51;12.60;99.90
1359;DHT22;673;48.098;14.422;2022-09-02T01:43:21;12.60;99.90
1359;DHT22;673;48.098;14.422;2022-09-02T01:45:50;12.50;99.90
1359;DHT22;673;48.098;14.422;2022-09-02T01:48:18;12.30;99.90
1359;DHT22;673;48.098;14.422;2022-09-02T01:50:48;12.20;99.90
1359;DHT22;673;48.098;14.422;2022-09-02T01:53:15;12.20;99.90
1359;DHT22;673;48.098;14.422;2022-09-02T01:55:43;12.20;99.90
1359;DHT22;673;48.098;14.422;2022-09-02T01:58:11;12.10;99.90
1359;DHT22;673;48.098;14.422;2022-09-02T02:00:38;12.10;99.90
1359;DHT22;673;48.098;14.422;2022-09-02T02:03:05;12.00;99.90
1359;DHT22;673;48.098;14.422;2022-09-02T02:05:32;12.10;99.90
1359;DHT22;673;48.098;14.422;2022-09-02T02:08:00;12.10;99.90
1359;DHT22;673;48.098;14.422;2022-09-02T02:10:27;12.20;99.90
1359;DHT22;673;48.098;14.422;2022-09-02T02:12:54;12.10;99.90
1359;DHT22;673;48.098;14.422;2022-09-02T02:15:23;12.10;99.90
1359;DHT22;673;48.098;14.422;2022-09-02T02:17:51;12.10;99.90
1359;DHT22;673;48.098;14.422;2022-09-02T02:20:19;12.10;99.90
1359;DHT22;673;48.098;14.422;2022-09-02T02:22:47;11.90;99.90
1359;DHT22;673;48.098;14.422;2022-09-02T02:25:15;11.90;99.90
1359;DHT22;673;48.098;14.422;2022-09-02T02:27:42;11.90;99.90
1359;DHT22;673;48.098;14.422;2022-09-02T02:30:13;11.80;99.90
1359;DHT22;673;48.098;14.422;2022-09-02T02:32:42;11.80;99.90
1359;DHT22;673;48.098;14.422;2022-09-02T02:35:12;11.90;99.90
1359;DHT22;673;48.098;14.422;2022-09-02T02:37:39;11.90;99.90
1359;DHT22;673;48.098;14.422;2022-09-02T02:40:08;11.80;99.90
1359;DHT22;673;48.098;14.422;2022-09-02T02:42:36;11.80;99.90
1359;DHT22;673;48.098;14.422;2022-09-02T02:45:05;11.80;99.90
1359;DHT22;673;48.098;14.422;2022-09-02T02:47:36;11.70;99.90
1359;DHT22;673;48.098;14.422;2022-09-02T02:50:07;11.70;99.90
1359;DHT22;673;48.098;14.422;2022-09-02T02:52:35;11.70;99.90
1359;DHT22;673;48.098;14.422;2022-09-02T02:55:02;11.70;99.90
1359;DHT22;673;48.098;14.422;2022-09-02T02:57:31;11.70;99.90
1359;DHT22;673;48.098;14.422;2022-09-02T03:00:03;11.70;99.90
1359;DHT22;673;48.098;14.422;2022-09-02T03:02:29;11.70;99.90
1359;DHT22;673;48.098;14.422;2022-09-02T03:04:57;11.70;99.90
1359;DHT22;673;48.098;14.422;2022-09-02T03:07:27;11.60;99.90
1359;DHT22;673;48.098;14.422;2022-09-02T03:09:54;11.70;99.90
1359;DHT22;673;48.098;14.422;2022-09-02T03:12:21;11.60;99.90
1359;DHT22;673;48.098;14.422;2022-09-02T03:14:50;11.60;99.90
1359;DHT22;673;48.098;14.422;2022-09-02T03:17:18;11.50;99.90
1359;DHT22;673;48.098;14.422;2022-09-02T03:19:45;11.60;99.90
1359;DHT22;673;48.098;14.422;2022-09-02T03:22:12;11.50;99.90
1359;DHT22;673;48.098;14.422;2022-09-02T03:24:40;11.40;99.90
1359;DHT22;673;48.098;14.422;2022-09-02T03:27:07;11.50;99.90
1359;DHT22;673;48.098;14.422;2022-09-02T03:29:34;11.40;99.90
1359;DHT22;673;48.098;14.422;2022-09-02T03:32:02;11.30;99.90
1359;DHT22;673;48.098;14.422;2022-09-02T03:34:30;11.30;99.90
1359;DHT22;673;48.098;14.422;2022-09-02T03:36:57;11.20;99.90
1359;DHT22;673;48.098;14.422;2022-09-02T03:39:24;11.30;99.90
1359;DHT22;673;48.098;14.422;2022-09-02T03:41:52;11.30;99.90
1359;DHT22;673;48.098;14.422;2022-09-02T03:44:20;11.20;99.90
1359;DHT22;673;48.098;14.422;2022-09-02T03:46:47;11.20;99.90
1359;DHT22;673;48.098;14.422;2022-09-02T03:49:14;11.20;99.90
1359;DHT22;673;48.098;14.422;2022-09-02T03:51:42;11.20;99.90
1359;DHT22;673;48.098;14.422;2022-09-02T03:54:09;11.10;99.90
1359;DHT22;673;48.098;14.422;2022-09-02T03:56:36;11.10;99.90
1359;DHT22;673;48.098;14.422;2022-09-02T03:59:05;11.10;99.90
1359;DHT22;673;48.098;14.422;2022-09-02T04:01:32;11.10;99.90
1359;DHT22;673;48.098;14.422;2022-09-02T04:03:59;11.10;99.90
1359;DHT22;673;48.098;14.422;2022-09-02T04:06:27;11.10;99.90
1359;DHT22;673;48.098;14.422;2022-09-02T04:08:54;11.10;99.90
1359;DHT22;673;48.098;14.422;2022-09-02T04:11:22;11.10;99.90
1359;DHT22;673;48.098;14.422;2022-09-02T04:13:51;11.00;99.90
1359;DHT22;673;48.098;14.422;2022-09-02T04:16:22;11.10;99.90
1359;DHT22;673;48.098;14.422;2022-09-02T04:18:53;11.00;99.90
1359;DHT22;673;48.098;14.422;2022-09-02T04:21:21;11.00;99.90
1359;DHT22;673;48.098;14.422;2022-09-02T04:23:48;10.90;99.90
1359;DHT22;673;48.098;14.422;2022-09-02T04:26:17;10.80;99.90
1359;DHT22;673;48.098;14.422;2022-09-02T04:28:45;10.90;99.90
1359;DHT22;673;48.098;14.422;2022-09-02T04:31:14;10.90;99.90
1359;DHT22;673;48.098;14.422;2022-09-02T04:33:44;10.90;99.90
1359;DHT22;673;48.098;14.422;2022-09-02T04:36:13;10.80;99.90
1359;DHT22;673;48.098;14.422;2022-09-02T04:38:41;10.90;99.90
1359;DHT22;673;48.098;14.422;2022-09-02T04:41:09;10.90;99.90
1359;DHT22;673;48.098;14.422;2022-09-02T04:43:37;10.90;99.90
1359;DHT22;673;48.098;14.422;2022-09-02T04:46:08;10.90;99.90
1359;DHT22;673;48.098;14.422;2022-09-02T04:48:36;10.90;99.90
1359;DHT22;673;48.098;14.422;2022-09-02T04:51:07;10.90;99.90
1359;DHT22;673;48.098;14.422;2022-09-02T04:53:34;11.00;99.90
1359;DHT22;673;48.098;14.422;2022-09-02T04:56:03;11.00;99.90
1359;DHT22;673;48.098;14.422;2022-09-02T04:58:30;11.10;99.90
1359;DHT22;673;48.098;14.422;2022-09-02T05:00:57;11.10;99.90
1359;DHT22;673;48.098;14.422;2022-09-02T05:03:24;11.10;99.90
1359;DHT22;673;48.098;14.422;2022-09-02T05:06:00;11.20;99.90
1359;DHT22;673;48.098;14.422;2022-09-02T05:08:29;11.20;99.90
1359;DHT22;673;48.098;14.422;2022-09-02T05:10:56;11.20;99.90
1359;DHT22;673;48.098;14.422;2022-09-02T05:13:24;11.20;99.90
1359;DHT22;673;48.098;14.422;2022-09-02T05:15:51;11.30;99.90
1359;DHT22;673;48.098;14.422;2022-09-02T05:18:19;11.40;99.90
1359;DHT22;673;48.098;14.422;2022-09-02T05:20:46;11.50;99.90
1359;DHT22;673;48.098;14.422;2022-09-02T05:23:13;11.40;99.90
1359;DHT22;673;48.098;14.422;2022-09-02T05:25:42;11.50;99.90
1359;DHT22;673;48.098;14.422;2022-09-02T05:28:09;11.60;99.90
1359;DHT22;673;48.098;14.422;2022-09-02T05:30:38;11.60;99.90
1359;DHT22;673;48.098;14.422;2022-09-02T05:33:06;11.80;99.90
1359;DHT22;673;48.098;14.422;2022-09-02T05:35:38;11.80;99.90
1359;DHT22;673;48.098;14.422;2022-09-02T05:38:05;11.90;99.90
1359;DHT22;673;48.098;14.422;2022-09-02T05:40:33;11.90;99.90
1359;DHT22;673;48.098;14.422;2022-09-02T05:43:01;12.00;99.90
1359;DHT22;673;48.098;14.422;2022-09-02T05:45:28;12.10;99.90
1359;DHT22;673;48.098;14.422;2022-09-02T05:47:55;12.20;99.90
1359;DHT22;673;48.098;14.422;2022-09-02T05:50:22;12.30;99.90
1359;DHT22;673;48.098;14.422;2022-09-02T05:52:50;12.40;99.90
1359;DHT22;673;48.098;14.422;2022-09-02T05:55:17;12.40;99.90
1359;DHT22;673;48.098;14.422;2022-09-02T05:57:44;12.40;99.90
1359;DHT22;673;48.098;14.422;2022-09-02T06:00:14;12.60;99.90
1359;DHT22;673;48.098;14.422;2022-09-02T06:02:41;12.70;99.90
1359;DHT22;673;48.098;14.422;2022-09-02T06:05:09;12.80;99.90
1359;DHT22;673;48.098;14.422;2022-09-02T06:07:37;12.90;99.90
1359;DHT22;673;48.098;14.422;2022-09-02T06:10:04;13.10;99.90
1359;DHT22;673;48.098;14.422;2022-09-02T06:12:32;13.20;99.90
1359;DHT22;673;48.098;14.422;2022-09-02T06:14:59;13.30;99.90
1359;DHT22;673;48.098;14.422;2022-09-02T06:17:29;13.30;99.90
1359;DHT22;673;48.098;14.422;2022-09-02T06:19:56;13.50;99.90
1359;DHT22;673;48.098;14.422;2022-09-02T06:22:23;13.60;99.90
1359;DHT22;673;48.098;14.422;2022-09-02T06:24:50;13.70;99.90
1359;DHT22;673;48.098;14.422;2022-09-02T06:27:17;13.80;99.90
1359;DHT22;673;48.098;14.422;2022-09-02T06:29:44;13.90;99.90
1359;DHT22;673;48.098;14.422;2022-09-02T06:32:11;14.10;99.90
1359;DHT22;673;48.098;14.422;2022-09-02T06:34:40;14.20;99.90
1359;DHT22;673;48.098;14.422;2022-09-02T06:37:07;14.20;99.90
1359;DHT22;673;48.098;14.422;2022-09-02T06:39:34;14.20;99.90
1359;DHT22;673;48.098;14.422;2022-09-02T06:42:02;14.30;99.90
1359;DHT22;673;48.098;14.422;2022-09-02T06:44:30;14.40;99.90
1359;DHT22;673;48.098;14.422;2022-09-02T06:46:58;14.60;99.90
1359;DHT22;673;48.098;14.422;2022-09-02T06:49:26;14.70;99.90
1359;DHT22;673;48.098;14.422;2022-09-02T06:51:55;14.90;99.90
1359;DHT22;673;48.098;14.422;2022-09-02T06:54:24;14.80;99.90
1359;DHT22;673;48.098;14.422;2022-09-02T06:56:51;14.70;99.90
1359;DHT22;673;48.098;14.422;2022-09-02T06:59:19;14.60;99.90
1359;DHT22;673;48.098;14.422;2022-09-02T07:01:48;14.70;99.90
1359;DHT22;673;48.098;14.422;2022-09-02T07:04:15;14.80;99.90
1359;DHT22;673;48.098;14.422;2022-09-02T07:07:03;14.90;99.90
1359;DHT22;673;48.098;14.422;2022-09-02T07:09:30;15.00;99.90
1359;DHT22;673;48.098;14.422;2022-09-02T07:11:58;15.00;99.90
1359;DHT22;673;48.098;14.422;2022-09-02T07:14:26;15.10;99.90
1359;DHT22;673;48.098;14.422;2022-09-02T07:16:54;15.10;99.90
1359;DHT22;673;48.098;14.422;2022-09-02T07:19:23;15.00;99.90
1359;DHT22;673;48.098;14.422;2022-09-02T07:21:51;15.20;99.90
1359;DHT22;673;48.098;14.422;2022-09-02T07:24:20;15.30;99.90
1359;DHT22;673;48.098;14.422;2022-09-02T07:26:48;15.40;99.90
1359;DHT22;673;48.098;14.422;2022-09-02T07:29:16;15.30;99.90
1359;DHT22;673;48.098;14.422;2022-09-02T07:31:45;15.40;99.90
1359;DHT22;673;48.098;14.422;2022-09-02T07:34:12;15.50;99.90
1359;DHT22;673;48.098;14.422;2022-09-02T07:36:40;15.60;99.90
1359;DHT22;673;48.098;14.422;2022-09-02T07:39:09;15.70;99.90
1359;DHT22;673;48.098;14.422;2022-09-02T07:41:40;15.80;99.90
1359;DHT22;673;48.098;14.422;2022-09-02T07:44:07;16.10;99.90
1359;DHT22;673;48.098;14.422;2022-09-02T07:46:35;16.10;99.90
1359;DHT22;673;48.098;14.422;2022-09-02T07:49:04;16.30;99.90
1359;DHT22;673;48.098;14.422;2022-09-02T07:51:32;16.60;99.90
1359;DHT22;673;48.098;14.422;2022-09-02T07:54:00;16.50;99.90
1359;DHT22;673;48.098;14.422;2022-09-02T07:56:27;16.40;99.90
1359;DHT22;673;48.098;14.422;2022-09-02T07:58:56;16.60;99.90
1359;DHT22;673;48.098;14.422;2022-09-02T08:01:23;16.80;99.90
1359;DHT22;673;48.098;14.422;2022-09-02T08:03:51;16.90;99.90
1359;DHT22;673;48.098;14.422;2022-09-02T08:06:18;17.10;99.90
1359;DHT22;673;48.098;14.422;2022-09-02T08:08:45;17.10;99.90
1359;DHT22;673;48.098;14.422;2022-09-02T08:11:13;17.00;99.90
1359;DHT22;673;48.098;14.422;2022-09-02T08:13:40;16.90;99.90
1359;DHT22;673;48.098;14.422;2022-09-02T08:16:08;17.00;99.90
1359;DHT22;673;48.098;14.422;2022-09-02T08:18:35;17.20;99.90
1359;DHT22;673;48.098;14.422;2022-09-02T08:21:02;17.40;99.90
1359;DHT22;673;48.098;14.422;2022-09-02T08:23:29;17.40;99.90
1359;DHT22;673;48.098;14.422;2022-09-02T08:25:57;17.60;99.90
1359;DHT22;673;48.098;14.422;2022-09-02T08:28:25;17.60;99.90
1359;DHT22;673;48.098;14.422;2022-09-02T08:30:53;17.60;99.90
1359;DHT22;673;48.098;14.422;2022-09-02T08:33:25;17.80;99.90
1359;DHT22;673;48.098;14.422;2022-09-02T08:35:52;17.90;99.90
1359;DHT22;673;48.098;14.422;2022-09-02T08:38:19;17.90;99.90
1359;DHT22;673;48.098;14.422;2022-09-02T08:40:47;17.90;99.90
1359;DHT22;673;48.098;14.422;2022-09-02T08:43:27;18.00;99.30
1359;DHT22;673;48.098;14.422;2022-09-02T08:45:58;17.90;99.90
1359;DHT22;673;48.098;14.422;2022-09-02T08:48:34;17.90;99.40
1359;DHT22;673;48.098;14.422;2022-09-02T08:51:06;17.80;99.20
1359;DHT22;673;48.098;14.422;2022-09-02T08:53:39;17.90;99.40
1359;DHT22;673;48.098;14.422;2022-09-02T08:56:15;17.80;98.10
1359;DHT22;673;48.098;14.422;2022-09-02T08:58:44;17.90;99.00
1359;DHT22;673;48.098;14.422;2022-09-02T09:01:20;17.90;99.30
1359;DHT22;673;48.098;14.422;2022-09-02T09:04:19;18.00;99.90
1359;DHT22;673;48.098;14.422;2022-09-02T09:07:01;18.10;99.90
1359;DHT22;673;48.098;14.422;2022-09-02T09:09:40;18.30;99.90
1359;DHT22;673;48.098;14.422;2022-09-02T09:12:17;18.50;99.00
1359;DHT22;673;48.098;14.422;2022-09-02T09:14:50;18.60;99.90
1359;DHT22;673;48.098;14.422;2022-09-02T09:17:26;18.70;99.00
1359;DHT22;673;48.098;14.422;2022-09-02T09:19:59;18.90;96.40
1359;DHT22;673;48.098;14.422;2022-09-02T09:22:30;18.90;98.20
1359;DHT22;673;48.098;14.422;2022-09-02T09:24:58;19.10;97.40
1359;DHT22;673;48.098;14.422;2022-09-02T09:27:25;19.10;97.00
1359;DHT22;673;48.098;14.422;2022-09-02T09:29:52;18.90;96.20
1359;DHT22;673;48.098;14.422;2022-09-02T09:32:24;19.00;98.20
1359;DHT22;673;48.098;14.422;2022-09-02T09:35:02;19.30;96.90
1359;DHT22;673;48.098;14.422;2022-09-02T09:37:37;19.30;95.50
1359;DHT22;673;48.098;14.422;2022-09-02T09:40:22;19.50;94.80
1359;DHT22;673;48.098;14.422;2022-09-02T09:42:53;19.50;93.80
1359;DHT22;673;48.098;14.422;2022-09-02T09:45:29;19.40;94.80
1359;DHT22;673;48.098;14.422;2022-09-02T09:48:17;19.30;94.20
1359;DHT22;673;48.098;14.422;2022-09-02T09:50:47;19.20;92.90
1359;DHT22;673;48.098;14.422;2022-09-02T09:53:17;19.50;94.40
1359;DHT22;673;48.098;14.422;2022-09-02T09:55:51;19.50;92.00
1359;DHT22;673;48.098;14.422;2022-09-02T09:58:20;19.60;94.50
1359;DHT22;673;48.098;14.422;2022-09-02T10:00:48;19.50;91.70
1359;DHT22;673;48.098;14.422;2022-09-02T10:03:26;19.30;91.70
1359;DHT22;673;48.098;14.422;2022-09-02T10:05:56;19.30;92.90
1359;DHT22;673;48.098;14.422;2022-09-02T10:08:25;19.20;92.10
1359;DHT22;673;48.098;14.422;2022-09-02T10:10:58;19.20;90.10
1359;DHT22;673;48.098;14.422;2022-09-02T10:13:28;19.10;86.50
1359;DHT22;673;48.098;14.422;2022-09-02T10:16:14;19.30;89.90
1359;DHT22;673;48.098;14.422;2022-09-02T10:18:48;19.40;92.20
1359;DHT22;673;48.098;14.422;2022-09-02T10:21:29;19.40;90.90
1359;DHT22;673;48.098;14.422;2022-09-02T10:24:06;19.70;91.80
1359;DHT22;673;48.098;14.422;2022-09-02T10:26:37;19.80;91.60
1359;DHT22;673;48.098;14.422;2022-09-02T10:29:22;19.80;90.30
1359;DHT22;673;48.098;14.422;2022-09-02T10:32:12;19.90;91.90
1359;DHT22;673;48.098;14.422;2022-09-02T10:34:47;20.10;90.90
1359;DHT22;673;48.098;14.422;2022-09-02T10:37:19;20.00;91.60
1359;DHT22;673;48.098;14.422;2022-09-02T10:40:08;20.00;90.00
1359;DHT22;673;48.098;14.422;2022-09-02T10:42:43;20.20;89.60
1359;DHT22;673;48.098;14.422;2022-09-02T10:45:15;20.40;91.50
1359;DHT22;673;48.098;14.422;2022-09-02T10:47:55;20.20;85.10
1359;DHT22;673;48.098;14.422;2022-09-02T10:50:34;20.00;85.40
1359;DHT22;673;48.098;14.422;2022-09-02T10:53:26;20.10;87.50
1359;DHT22;673;48.098;14.422;2022-09-02T10:55:59;20.40;85.00
1359;DHT22;673;48.098;14.422;2022-09-02T10:58:38;20.60;86.60
1359;DHT22;673;48.098;14.422;2022-09-02T11:01:07;20.80;86.00
1359;DHT22;673;48.098;14.422;2022-09-02T11:03:39;20.80;84.50
1359;DHT22;673;48.098;14.422;2022-09-02T11:06:12;20.80;86.50
1359;DHT22;673;48.098;14.422;2022-09-02T11:08:45;20.60;86.50
1359;DHT22;673;48.098;14.422;2022-09-02T11:11:15;20.60;86.40
1359;DHT22;673;48.098;14.422;2022-09-02T11:13:57;20.80;84.10
1359;DHT22;673;48.098;14.422;2022-09-02T11:16:31;20.70;86.30
1359;DHT22;673;48.098;14.422;2022-09-02T11:19:02;20.50;85.70
1359;DHT22;673;48.098;14.422;2022-09-02T11:21:41;20.60;85.70
1359;DHT22;673;48.098;14.422;2022-09-02T11:24:15;20.80;83.80
1359;DHT22;673;48.098;14.422;2022-09-02T11:26:52;21.00;83.40
1359;DHT22;673;48.098;14.422;2022-09-02T11:29:29;21.10;81.90
1359;DHT22;673;48.098;14.422;2022-09-02T11:32:06;21.10;88.00
1359;DHT22;673;48.098;14.422;2022-09-02T11:34:39;21.00;79.40
1359;DHT22;673;48.098;14.422;2022-09-02T11:37:12;20.80;82.40
1359;DHT22;673;48.098;14.422;2022-09-02T11:39:45;21.00;82.90
1359;DHT22;673;48.098;14.422;2022-09-02T11:51:30;21.60;82.60
1359;DHT22;673;48.098;14.422;2022-09-02T11:54:03;21.50;79.20
1359;DHT22;673;48.098;14.422;2022-09-02T11:56:37;21.50;80.70
1359;DHT22;673;48.098;14.422;2022-09-02T11:59:06;21.60;77.40
1359;DHT22;673;48.098;14.422;2022-09-02T12:01:35;21.60;77.60
1359;DHT22;673;48.098;14.422;2022-09-02T12:04:05;21.40;79.50
1359;DHT22;673;48.098;14.422;2022-09-02T12:06:32;21.10;80.60
1359;DHT22;673;48.098;14.422;2022-09-02T12:09:07;21.20;80.80
1359;DHT22;673;48.098;14.422;2022-09-02T12:11:51;21.50;84.80
1359;DHT22;673;48.098;14.422;2022-09-02T12:17:37;21.20;79.80
1359;DHT22;673;48.098;14.422;2022-09-02T12:20:05;21.10;81.30
1359;DHT22;673;48.098;14.422;2022-09-02T12:22:35;21.30;81.50
1359;DHT22;673;48.098;14.422;2022-09-02T12:25:05;21.30;78.90
1359;DHT22;673;48.098;14.422;2022-09-02T12:28:21;21.20;76.00
1359;DHT22;673;48.098;14.422;2022-09-02T12:37:06;21.10;75.10
1359;DHT22;673;48.098;14.422;2022-09-02T12:39:52;21.30;77.40
1359;DHT22;673;48.098;14.422;2022-09-02T12:42:25;21.30;72.20
1359;DHT22;673;48.098;14.422;2022-09-02T12:45:04;21.50;73.40
1359;DHT22;673;48.098;14.422;2022-09-02T12:47:45;21.30;71.90
1359;DHT22;673;48.098;14.422;2022-09-02T12:50:26;21.20;73.20
1359;DHT22;673;48.098;14.422;2022-09-02T12:53:10;21.10;71.80
1359;DHT22;673;48.098;14.422;2022-09-02T12:55:40;21.30;69.70
1359;DHT22;673;48.098;14.422;2022-09-02T12:58:19;21.40;71.20
1359;DHT22;673;48.098;14.422;2022-09-02T13:00:59;21.30;73.30
1359;DHT22;673;48.098;14.422;2022-09-02T13:03:46;21.30;75.00
1359;DHT22;673;48.098;14.422;2022-09-02T13:06:23;21.30;76.60
1359;DHT22;673;48.098;14.422;2022-09-02T13:12:30;21.50;72.90
1359;DHT22;673;48.098;14.422;2022-09-02T13:15:07;21.50;73.50
1359;DHT22;673;48.098;14.422;2022-09-02T13:18:13;21.50;71.20
1359;DHT22;673;48.098;14.422;2022-09-02T13:33:00;21.50;71.30
1359;DHT22;673;48.098;14.422;2022-09-02T13:35:29;21.50;68.80
1359;DHT22;673;48.098;14.422;2022-09-02T13:37:57;21.40;77.40
1359;DHT22;673;48.098;14.422;2022-09-02T13:40:27;21.50;71.70
1359;DHT22;673;48.098;14.422;2022-09-02T13:42:56;21.50;72.50
1359;DHT22;673;48.098;14.422;2022-09-02T13:45:27;21.50;75.30
1359;DHT22;673;48.098;14.422;2022-09-02T13:47:56;21.40;70.00
1359;DHT22;673;48.098;14.422;2022-09-02T13:50:26;21.30;68.50
1359;DHT22;673;48.098;14.422;2022-09-02T13:52:56;21.30;70.00
1359;DHT22;673;48.098;14.422;2022-09-02T13:55:24;21.30;71.00
1359;DHT22;673;48.098;14.422;2022-09-02T13:57:55;21.30;73.30
1359;DHT22;673;48.098;14.422;2022-09-02T14:00:30;21.30;69.30
1359;DHT22;673;48.098;14.422;2022-09-02T14:03:02;21.50;74.00
1359;DHT22;673;48.098;14.422;2022-09-02T14:05:30;21.60;72.30
1359;DHT22;673;48.098;14.422;2022-09-02T14:08:00;21.60;70.60
1359;DHT22;673;48.098;14.422;2022-09-02T14:10:29;21.40;72.20
1359;DHT22;673;48.098;14.422;2022-09-02T14:13:00;21.50;73.80
1359;DHT22;673;48.098;14.422;2022-09-02T14:15:30;21.50;72.10
1359;DHT22;673;48.098;14.422;2022-09-02T14:18:12;21.60;72.00
1359;DHT22;673;48.098;14.422;2022-09-02T14:20:53;21.40;70.50
1359;DHT22;673;48.098;14.422;2022-09-02T14:23:21;21.50;73.40
1359;DHT22;673;48.098;14.422;2022-09-02T14:25:51;21.50;73.90
1359;DHT22;673;48.098;14.422;2022-09-02T14:28:21;21.60;72.00
1359;DHT22;673;48.098;14.422;2022-09-02T14:30:58;21.50;71.40
1359;DHT22;673;48.098;14.422;2022-09-02T14:33:37;21.50;70.40
1359;DHT22;673;48.098;14.422;2022-09-02T14:36:06;21.50;70.50
1359;DHT22;673;48.098;14.422;2022-09-02T14:38:36;21.40;71.20
1359;DHT22;673;48.098;14.422;2022-09-02T14:41:08;21.30;73.70
1359;DHT22;673;48.098;14.422;2022-09-02T14:43:42;21.30;72.70
1359;DHT22;673;48.098;14.422;2022-09-02T14:46:22;21.10;70.20
1359;DHT22;673;48.098;14.422;2022-09-02T14:48:56;21.00;70.80
1359;DHT22;673;48.098;14.422;2022-09-02T14:51:29;21.20;73.00
1359;DHT22;673;48.098;14.422;2022-09-02T14:53:57;21.10;73.20
1359;DHT22;673;48.098;14.422;2022-09-02T14:56:44;21.10;73.50
1359;DHT22;673;48.098;14.422;2022-09-02T14:59:11;21.00;76.20
1359;DHT22;673;48.098;14.422;2022-09-02T15:01:39;21.10;74.70
1359;DHT22;673;48.098;14.422;2022-09-02T15:04:08;21.00;77.20
1359;DHT22;673;48.098;14.422;2022-09-02T15:06:35;21.10;76.60
1359;DHT22;673;48.098;14.422;2022-09-02T15:09:03;21.10;76.90
1359;DHT22;673;48.098;14.422;2022-09-02T15:11:30;21.20;75.60
1359;DHT22;673;48.098;14.422;2022-09-02T15:13:57;21.20;76.40
1359;DHT22;673;48.098;14.422;2022-09-02T15:16:24;21.30;77.10
1359;DHT22;673;48.098;14.422;2022-09-02T15:18:52;21.20;75.80
1359;DHT22;673;48.098;14.422;2022-09-02T15:21:20;21.20;76.70
1359;DHT22;673;48.098;14.422;2022-09-02T15:23:47;20.90;77.50
1359;DHT22;673;48.098;14.422;2022-09-02T15:26:15;20.80;78.10
1359;DHT22;673;48.098;14.422;2022-09-02T15:28:42;20.80;77.40
1359;DHT22;673;48.098;14.422;2022-09-02T15:31:10;20.80;77.40
1359;DHT22;673;48.098;14.422;2022-09-02T15:33:38;20.80;77.60
1359;DHT22;673;48.098;14.422;2022-09-02T15:36:07;20.70;77.40
1359;DHT22;673;48.098;14.422;2022-09-02T15:38:37;20.80;77.50
1359;DHT22;673;48.098;14.422;2022-09-02T15:41:13;20.80;75.30
1359;DHT22;673;48.098;14.422;2022-09-02T15:43:40;21.20;76.50
1359;DHT22;673;48.098;14.422;2022-09-02T15:46:21;21.70;77.40
1359;DHT22;673;48.098;14.422;2022-09-02T15:48:48;22.00;76.40
1359;DHT22;673;48.098;14.422;2022-09-02T15:51:18;22.20;76.70
1359;DHT22;673;48.098;14.422;2022-09-02T15:53:46;22.30;74.90
1359;DHT22;673;48.098;14.422;2022-09-02T15:56:16;22.40;73.30
1359;DHT22;673;48.098;14.422;2022-09-02T15:58:43;22.50;73.90
1359;DHT22;673;48.098;14.422;2022-09-02T16:01:11;22.80;72.50
1359;DHT22;673;48.098;14.422;2022-09-02T16:03:38;22.80;71.40
1359;DHT22;673;48.098;14.422;2022-09-02T16:06:06;23.00;74.00
1359;DHT22;673;48.098;14.422;2022-09-02T16:08:34;22.90;72.70
1359;DHT22;673;48.098;14.422;2022-09-02T16:11:05;23.00;73.40
1359;DHT22;673;48.098;14.422;2022-09-02T16:13:33;23.30;72.10
1359;DHT22;673;48.098;14.422;2022-09-02T16:16:02;23.00;72.10
1359;DHT22;673;48.098;14.422;2022-09-02T16:18:29;23.00;72.90
1359;DHT22;673;48.098;14.422;2022-09-02T16:20:56;23.20;74.00
1359;DHT22;673;48.098;14.422;2022-09-02T16:23:24;23.10;73.30
1359;DHT22;673;48.098;14.422;2022-09-02T16:26:10;23.30;73.70
1359;DHT22;673;48.098;14.422;2022-09-02T16:28:39;23.10;73.20
1359;DHT22;673;48.098;14.422;2022-09-02T16:31:09;22.50;76.40
1359;DHT22;673;48.098;14.422;2022-09-02T16:33:36;21.30;79.40
1359;DHT22;673;48.098;14.422;2022-09-02T16:36:04;20.50;84.00
1359;DHT22;673;48.098;14.422;2022-09-02T16:38:31;20.00;84.40
1359;DHT22;673;48.098;14.422;2022-09-02T16:41:00;19.50;86.30
1359;DHT22;673;48.098;14.422;2022-09-02T16:43:29;19.30;87.90
1359;DHT22;673;48.098;14.422;2022-09-02T16:45:58;19.20;89.50
1359;DHT22;673;48.098;14.422;2022-09-02T16:48:29;19.10;91.00
1359;DHT22;673;48.098;14.422;2022-09-02T16:51:00;18.90;91.50
1359;DHT22;673;48.098;14.422;2022-09-02T16:53:28;18.80;91.90
1359;DHT22;673;48.098;14.422;2022-09-02T16:55:56;18.80;91.80
1359;DHT22;673;48.098;14.422;2022-09-02T16:58:23;18.80;92.50